sensor_id;sensor_type;location;lat;lon;timestamp;P1;durP1;ratioP1;P2;durP2;ratioP2
55172;SDS011;41061;52.822;6.860;2022-07-24T00:00:52;6.10;;;2.63;;
55172;SDS011;41061;52.822;6.860;2022-07-24T00:03:17;7.60;;;3.03;;
55172;SDS011;41061;52.822;6.860;2022-07-24T00:05:43;4.18;;;2.90;;
55172;SDS011;41061;52.822;6.860;2022-07-24T00:08:09;4.65;;;2.70;;
55172;SDS011;41061;52.822;6.860;2022-07-24T00:10:35;3.58;;;2.45;;
55172;SDS011;41061;52.822;6.860;2022-07-24T00:13:00;3.15;;;2.45;;
55172;SDS011;41061;52.822;6.860;2022-07-24T00:15:26;7.35;;;3.42;;
55172;SDS011;41061;52.822;6.860;2022-07-24T00:17:52;6.30;;;3.10;;
55172;SDS011;41061;52.822;6.860;2022-07-24T00:20:17;4.60;;;2.80;;
55172;SDS011;41061;52.822;6.860;2022-07-24T00:22:43;4.63;;;3.15;;
55172;SDS011;41061;52.822;6.860;2022-07-24T00:25:09;5.70;;;3.15;;
55172;SDS011;41061;52.822;6.860;2022-07-24T00:27:35;5.22;;;3.65;;
55172;SDS011;41061;52.822;6.860;2022-07-24T00:30:00;7.13;;;2.92;;
55172;SDS011;41061;52.822;6.860;2022-07-24T00:32:26;5.40;;;3.22;;
55172;SDS011;41061;52.822;6.860;2022-07-24T00:34:52;5.22;;;3.30;;
55172;SDS011;41061;52.822;6.860;2022-07-24T00:37:18;5.35;;;3.50;;
55172;SDS011;41061;52.822;6.860;2022-07-24T00:39:43;5.03;;;3.45;;
55172;SDS011;41061;52.822;6.860;2022-07-24T00:42:10;8.85;;;3.72;;
55172;SDS011;41061;52.822;6.860;2022-07-24T00:44:36;9.40;;;3.33;;
55172;SDS011;41061;52.822;6.860;2022-07-24T00:47:01;9.15;;;3.22;;
55172;SDS011;41061;52.822;6.860;2022-07-24T00:49:27;5.20;;;3.00;;
55172;SDS011;41061;52.822;6.860;2022-07-24T00:51:53;7.38;;;3.58;;
55172;SDS011;41061;52.822;6.860;2022-07-24T00:54:19;4.80;;;3.35;;
55172;SDS011;41061;52.822;6.860;2022-07-24T00:56:47;7.13;;;3.35;;
55172;SDS011;41061;52.822;6.860;2022-07-24T00:59:15;5.93;;;3.25;;
55172;SDS011;41061;52.822;6.860;2022-07-24T01:01:40;6.80;;;3.72;;
55172;SDS011;41061;52.822;6.860;2022-07-24T01:04:07;4.95;;;3.47;;
55172;SDS011;41061;52.822;6.860;2022-07-24T01:06:33;5.00;;;3.33;;
55172;SDS011;41061;52.822;6.860;2022-07-24T01:08:59;8.55;;;3.72;;
55172;SDS011;41061;52.822;6.860;2022-07-24T01:11:25;6.55;;;3.30;;
55172;SDS011;41061;52.822;6.860;2022-07-24T01:13:51;4.93;;;2.78;;
55172;SDS011;41061;52.822;6.860;2022-07-24T01:16:17;6.97;;;3.22;;
55172;SDS011;41061;52.822;6.860;2022-07-24T01:18:43;5.95;;;3.05;;
55172;SDS011;41061;52.822;6.860;2022-07-24T01:21:10;5.75;;;3.38;;
55172;SDS011;41061;52.822;6.860;2022-07-24T01:23:35;3.38;;;2.80;;
55172;SDS011;41061;52.822;6.860;2022-07-24T01:26:02;4.97;;;3.17;;
55172;SDS011;41061;52.822;6.860;2022-07-24T01:28:28;4.30;;;2.90;;
55172;SDS011;41061;52.822;6.860;2022-07-24T01:30:53;6.45;;;3.70;;
55172;SDS011;41061;52.822;6.860;2022-07-24T01:33:19;4.20;;;3.28;;
55172;SDS011;41061;52.822;6.860;2022-07-24T01:35:45;4.25;;;3.03;;
55172;SDS011;41061;52.822;6.860;2022-07-24T01:38:11;5.28;;;3.50;;
55172;SDS011;41061;52.822;6.860;2022-07-24T01:40:38;6.82;;;3.30;;
55172;SDS011;41061;52.822;6.860;2022-07-24T01:43:04;3.85;;;3.22;;
55172;SDS011;41061;52.822;6.860;2022-07-24T01:45:30;3.58;;;3.28;;
55172;SDS011;41061;52.822;6.860;2022-07-24T01:47:56;7.57;;;4.13;;
55172;SDS011;41061;52.822;6.860;2022-07-24T01:50:22;4.90;;;3.20;;
55172;SDS011;41061;52.822;6.860;2022-07-24T01:52:48;4.03;;;3.42;;
55172;SDS011;41061;52.822;6.860;2022-07-24T01:55:14;5.18;;;3.70;;
55172;SDS011;41061;52.822;6.860;2022-07-24T01:57:40;6.70;;;3.65;;
55172;SDS011;41061;52.822;6.860;2022-07-24T02:00:07;5.55;;;3.83;;
55172;SDS011;41061;52.822;6.860;2022-07-24T02:02:38;7.65;;;4.15;;
55172;SDS011;41061;52.822;6.860;2022-07-24T02:05:05;7.78;;;4.20;;
55172;SDS011;41061;52.822;6.860;2022-07-24T02:07:31;4.90;;;3.83;;
55172;SDS011;41061;52.822;6.860;2022-07-24T02:09:57;4.65;;;3.97;;
55172;SDS011;41061;52.822;6.860;2022-07-24T02:12:22;4.93;;;3.80;;
55172;SDS011;41061;52.822;6.860;2022-07-24T02:14:48;6.60;;;3.90;;
55172;SDS011;41061;52.822;6.860;2022-07-24T02:17:14;6.65;;;4.40;;
55172;SDS011;41061;52.822;6.860;2022-07-24T02:19:40;4.70;;;3.78;;
55172;SDS011;41061;52.822;6.860;2022-07-24T02:22:06;5.25;;;4.20;;
55172;SDS011;41061;52.822;6.860;2022-07-24T02:24:31;6.47;;;4.95;;
55172;SDS011;41061;52.822;6.860;2022-07-24T02:26:57;6.18;;;4.18;;
55172;SDS011;41061;52.822;6.860;2022-07-24T02:29:22;4.57;;;3.97;;
55172;SDS011;41061;52.822;6.860;2022-07-24T02:31:48;5.43;;;4.10;;
55172;SDS011;41061;52.822;6.860;2022-07-24T02:34:14;7.07;;;3.85;;
55172;SDS011;41061;52.822;6.860;2022-07-24T02:36:39;7.40;;;4.00;;
55172;SDS011;41061;52.822;6.860;2022-07-24T02:39:05;6.03;;;3.83;;
55172;SDS011;41061;52.822;6.860;2022-07-24T02:41:31;7.25;;;4.55;;
55172;SDS011;41061;52.822;6.860;2022-07-24T02:43:56;4.95;;;3.78;;
55172;SDS011;41061;52.822;6.860;2022-07-24T02:46:22;8.70;;;4.38;;
55172;SDS011;41061;52.822;6.860;2022-07-24T02:48:48;7.70;;;4.32;;
55172;SDS011;41061;52.822;6.860;2022-07-24T02:51:13;4.40;;;4.00;;
55172;SDS011;41061;52.822;6.860;2022-07-24T02:53:39;7.78;;;4.47;;
55172;SDS011;41061;52.822;6.860;2022-07-24T02:56:05;4.57;;;3.80;;
55172;SDS011;41061;52.822;6.860;2022-07-24T02:58:31;5.60;;;4.15;;
55172;SDS011;41061;52.822;6.860;2022-07-24T03:00:56;7.78;;;4.28;;
55172;SDS011;41061;52.822;6.860;2022-07-24T03:03:22;5.75;;;4.60;;
55172;SDS011;41061;52.822;6.860;2022-07-24T03:05:48;7.80;;;4.65;;
55172;SDS011;41061;52.822;6.860;2022-07-24T03:08:13;5.40;;;4.45;;
55172;SDS011;41061;52.822;6.860;2022-07-24T03:10:39;6.55;;;5.00;;
55172;SDS011;41061;52.822;6.860;2022-07-24T03:13:05;4.95;;;3.95;;
55172;SDS011;41061;52.822;6.860;2022-07-24T03:15:31;8.30;;;4.40;;
55172;SDS011;41061;52.822;6.860;2022-07-24T03:17:57;7.30;;;4.57;;
55172;SDS011;41061;52.822;6.860;2022-07-24T03:20:23;6.45;;;4.60;;
55172;SDS011;41061;52.822;6.860;2022-07-24T03:22:50;6.07;;;4.10;;
55172;SDS011;41061;52.822;6.860;2022-07-24T03:25:16;7.32;;;4.30;;
55172;SDS011;41061;52.822;6.860;2022-07-24T03:27:42;4.35;;;3.75;;
55172;SDS011;41061;52.822;6.860;2022-07-24T03:30:10;7.50;;;4.53;;
55172;SDS011;41061;52.822;6.860;2022-07-24T03:32:36;6.43;;;4.50;;
55172;SDS011;41061;52.822;6.860;2022-07-24T03:35:02;6.50;;;5.10;;
55172;SDS011;41061;52.822;6.860;2022-07-24T03:37:28;9.30;;;4.90;;
55172;SDS011;41061;52.822;6.860;2022-07-24T03:39:54;6.82;;;4.57;;
55172;SDS011;41061;52.822;6.860;2022-07-24T03:42:21;5.78;;;4.40;;
55172;SDS011;41061;52.822;6.860;2022-07-24T03:44:46;5.75;;;4.45;;
55172;SDS011;41061;52.822;6.860;2022-07-24T03:47:12;8.05;;;4.88;;
55172;SDS011;41061;52.822;6.860;2022-07-24T03:49:38;6.35;;;4.43;;
55172;SDS011;41061;52.822;6.860;2022-07-24T03:52:04;4.97;;;4.22;;
55172;SDS011;41061;52.822;6.860;2022-07-24T03:54:30;8.18;;;4.38;;
55172;SDS011;41061;52.822;6.860;2022-07-24T03:56:56;6.93;;;4.43;;
55172;SDS011;41061;52.822;6.860;2022-07-24T03:59:21;5.10;;;4.60;;
55172;SDS011;41061;52.822;6.860;2022-07-24T04:01:47;6.45;;;4.25;;
55172;SDS011;41061;52.822;6.860;2022-07-24T04:04:13;8.35;;;4.57;;
55172;SDS011;41061;52.822;6.860;2022-07-24T04:06:38;6.28;;;4.82;;
55172;SDS011;41061;52.822;6.860;2022-07-24T04:09:06;6.07;;;4.63;;
55172;SDS011;41061;52.822;6.860;2022-07-24T04:11:32;6.00;;;4.82;;
55172;SDS011;41061;52.822;6.860;2022-07-24T04:13:58;8.70;;;5.47;;
55172;SDS011;41061;52.822;6.860;2022-07-24T04:16:24;5.25;;;4.75;;
55172;SDS011;41061;52.822;6.860;2022-07-24T04:18:50;5.90;;;4.40;;
55172;SDS011;41061;52.822;6.860;2022-07-24T04:21:16;7.80;;;3.92;;
55172;SDS011;41061;52.822;6.860;2022-07-24T04:23:42;6.82;;;4.80;;
55172;SDS011;41061;52.822;6.860;2022-07-24T04:26:08;8.32;;;4.18;;
55172;SDS011;41061;52.822;6.860;2022-07-24T04:28:34;7.45;;;4.38;;
55172;SDS011;41061;52.822;6.860;2022-07-24T04:31:00;5.80;;;3.83;;
55172;SDS011;41061;52.822;6.860;2022-07-24T04:33:26;6.78;;;4.60;;
55172;SDS011;41061;52.822;6.860;2022-07-24T04:35:52;5.97;;;4.22;;
55172;SDS011;41061;52.822;6.860;2022-07-24T04:38:17;5.85;;;4.40;;
55172;SDS011;41061;52.822;6.860;2022-07-24T04:40:43;7.70;;;4.20;;
55172;SDS011;41061;52.822;6.860;2022-07-24T04:43:09;5.30;;;4.10;;
55172;SDS011;41061;52.822;6.860;2022-07-24T04:45:35;5.57;;;4.50;;
55172;SDS011;41061;52.822;6.860;2022-07-24T04:48:01;8.75;;;4.10;;
55172;SDS011;41061;52.822;6.860;2022-07-24T04:50:26;6.10;;;4.28;;
55172;SDS011;41061;52.822;6.860;2022-07-24T04:52:52;5.97;;;4.22;;
55172;SDS011;41061;52.822;6.860;2022-07-24T04:55:18;5.20;;;4.07;;
55172;SDS011;41061;52.822;6.860;2022-07-24T04:57:43;7.22;;;4.07;;
55172;SDS011;41061;52.822;6.860;2022-07-24T05:00:10;5.05;;;4.32;;
55172;SDS011;41061;52.822;6.860;2022-07-24T05:02:37;6.30;;;3.83;;
55172;SDS011;41061;52.822;6.860;2022-07-24T05:05:03;5.63;;;4.32;;
55172;SDS011;41061;52.822;6.860;2022-07-24T05:07:28;5.57;;;4.20;;
55172;SDS011;41061;52.822;6.860;2022-07-24T05:09:54;5.20;;;4.13;;
55172;SDS011;41061;52.822;6.860;2022-07-24T05:12:20;5.03;;;3.95;;
55172;SDS011;41061;52.822;6.860;2022-07-24T05:14:45;7.40;;;4.30;;
55172;SDS011;41061;52.822;6.860;2022-07-24T05:17:11;4.63;;;4.10;;
55172;SDS011;41061;52.822;6.860;2022-07-24T05:19:37;8.15;;;4.45;;
55172;SDS011;41061;52.822;6.860;2022-07-24T05:22:03;6.10;;;4.38;;
55172;SDS011;41061;52.822;6.860;2022-07-24T05:24:28;6.28;;;3.92;;
55172;SDS011;41061;52.822;6.860;2022-07-24T05:26:54;9.50;;;4.95;;
55172;SDS011;41061;52.822;6.860;2022-07-24T05:29:20;7.00;;;3.90;;
55172;SDS011;41061;52.822;6.860;2022-07-24T05:31:45;8.20;;;4.03;;
55172;SDS011;41061;52.822;6.860;2022-07-24T05:34:11;6.63;;;4.38;;
55172;SDS011;41061;52.822;6.860;2022-07-24T05:36:37;7.00;;;4.05;;
55172;SDS011;41061;52.822;6.860;2022-07-24T05:39:03;5.70;;;4.72;;
55172;SDS011;41061;52.822;6.860;2022-07-24T05:41:30;9.77;;;4.68;;
55172;SDS011;41061;52.822;6.860;2022-07-24T05:43:56;6.18;;;4.55;;
55172;SDS011;41061;52.822;6.860;2022-07-24T05:46:22;5.70;;;4.57;;
55172;SDS011;41061;52.822;6.860;2022-07-24T05:48:47;6.47;;;4.47;;
55172;SDS011;41061;52.822;6.860;2022-07-24T05:51:13;8.13;;;5.30;;
55172;SDS011;41061;52.822;6.860;2022-07-24T05:53:39;7.70;;;4.78;;
55172;SDS011;41061;52.822;6.860;2022-07-24T05:56:05;5.88;;;4.65;;
55172;SDS011;41061;52.822;6.860;2022-07-24T05:58:32;6.10;;;4.68;;
55172;SDS011;41061;52.822;6.860;2022-07-24T06:00:57;7.20;;;4.88;;
55172;SDS011;41061;52.822;6.860;2022-07-24T06:03:23;7.57;;;4.47;;
55172;SDS011;41061;52.822;6.860;2022-07-24T06:05:49;6.50;;;4.55;;
55172;SDS011;41061;52.822;6.860;2022-07-24T06:08:14;9.48;;;5.22;;
55172;SDS011;41061;52.822;6.860;2022-07-24T06:10:40;8.68;;;4.88;;
55172;SDS011;41061;52.822;6.860;2022-07-24T06:13:06;6.68;;;5.03;;
55172;SDS011;41061;52.822;6.860;2022-07-24T06:15:32;8.00;;;5.18;;
55172;SDS011;41061;52.822;6.860;2022-07-24T06:17:57;7.40;;;5.25;;
55172;SDS011;41061;52.822;6.860;2022-07-24T06:20:23;6.10;;;4.80;;
55172;SDS011;41061;52.822;6.860;2022-07-24T06:22:49;5.82;;;5.22;;
55172;SDS011;41061;52.822;6.860;2022-07-24T06:25:15;9.85;;;5.53;;
55172;SDS011;41061;52.822;6.860;2022-07-24T06:27:51;10.77;;;5.70;;
55172;SDS011;41061;52.822;6.860;2022-07-24T06:30:23;11.98;;;6.18;;
55172;SDS011;41061;52.822;6.860;2022-07-24T06:32:51;7.60;;;5.93;;
55172;SDS011;41061;52.822;6.860;2022-07-24T06:35:18;10.60;;;6.30;;
55172;SDS011;41061;52.822;6.860;2022-07-24T06:37:44;9.25;;;6.65;;
55172;SDS011;41061;52.822;6.860;2022-07-24T06:40:10;7.50;;;6.43;;
55172;SDS011;41061;52.822;6.860;2022-07-24T06:42:36;8.65;;;6.13;;
55172;SDS011;41061;52.822;6.860;2022-07-24T06:45:02;13.55;;;6.75;;
55172;SDS011;41061;52.822;6.860;2022-07-24T06:47:28;11.57;;;7.57;;
55172;SDS011;41061;52.822;6.860;2022-07-24T06:49:54;10.30;;;6.97;;
55172;SDS011;41061;52.822;6.860;2022-07-24T06:52:20;9.80;;;7.22;;
55172;SDS011;41061;52.822;6.860;2022-07-24T06:54:46;13.23;;;7.68;;
55172;SDS011;41061;52.822;6.860;2022-07-24T06:57:12;11.70;;;7.18;;
55172;SDS011;41061;52.822;6.860;2022-07-24T06:59:38;10.45;;;7.72;;
55172;SDS011;41061;52.822;6.860;2022-07-24T07:02:04;12.73;;;9.02;;
55172;SDS011;41061;52.822;6.860;2022-07-24T07:04:30;9.85;;;8.13;;
55172;SDS011;41061;52.822;6.860;2022-07-24T07:06:55;12.27;;;8.50;;
55172;SDS011;41061;52.822;6.860;2022-07-24T07:09:21;11.80;;;8.98;;
55172;SDS011;41061;52.822;6.860;2022-07-24T07:11:47;13.15;;;8.88;;
55172;SDS011;41061;52.822;6.860;2022-07-24T07:14:13;12.88;;;9.90;;
55172;SDS011;41061;52.822;6.860;2022-07-24T07:16:38;12.98;;;8.85;;
55172;SDS011;41061;52.822;6.860;2022-07-24T07:19:04;12.02;;;9.13;;
55172;SDS011;41061;52.822;6.860;2022-07-24T07:21:30;15.98;;;9.48;;
55172;SDS011;41061;52.822;6.860;2022-07-24T07:23:56;11.75;;;9.35;;
55172;SDS011;41061;52.822;6.860;2022-07-24T07:26:22;11.75;;;8.88;;
55172;SDS011;41061;52.822;6.860;2022-07-24T07:28:47;12.25;;;9.75;;
55172;SDS011;41061;52.822;6.860;2022-07-24T07:31:13;13.90;;;10.23;;
55172;SDS011;41061;52.822;6.860;2022-07-24T07:33:39;12.57;;;9.48;;
55172;SDS011;41061;52.822;6.860;2022-07-24T07:36:05;16.42;;;11.32;;
55172;SDS011;41061;52.822;6.860;2022-07-24T07:38:30;13.98;;;10.35;;
55172;SDS011;41061;52.822;6.860;2022-07-24T07:40:56;13.50;;;9.57;;
55172;SDS011;41061;52.822;6.860;2022-07-24T07:43:22;14.80;;;10.02;;
55172;SDS011;41061;52.822;6.860;2022-07-24T07:45:47;18.40;;;10.52;;
55172;SDS011;41061;52.822;6.860;2022-07-24T07:48:13;13.73;;;10.15;;
55172;SDS011;41061;52.822;6.860;2022-07-24T07:50:39;12.30;;;9.77;;
55172;SDS011;41061;52.822;6.860;2022-07-24T07:53:04;11.70;;;8.68;;
55172;SDS011;41061;52.822;6.860;2022-07-24T07:55:30;14.80;;;10.32;;
55172;SDS011;41061;52.822;6.860;2022-07-24T07:57:55;13.95;;;9.70;;
55172;SDS011;41061;52.822;6.860;2022-07-24T08:00:21;15.68;;;9.98;;
55172;SDS011;41061;52.822;6.860;2022-07-24T08:02:47;16.05;;;10.05;;
55172;SDS011;41061;52.822;6.860;2022-07-24T08:05:13;13.88;;;9.23;;
55172;SDS011;41061;52.822;6.860;2022-07-24T08:07:38;13.15;;;8.98;;
55172;SDS011;41061;52.822;6.860;2022-07-24T08:10:05;13.75;;;10.13;;
55172;SDS011;41061;52.822;6.860;2022-07-24T08:12:31;15.43;;;10.38;;
55172;SDS011;41061;52.822;6.860;2022-07-24T08:14:56;15.45;;;10.70;;
55172;SDS011;41061;52.822;6.860;2022-07-24T08:17:22;14.27;;;10.82;;
55172;SDS011;41061;52.822;6.860;2022-07-24T08:19:48;13.93;;;10.52;;
55172;SDS011;41061;52.822;6.860;2022-07-24T08:22:13;18.90;;;10.60;;
55172;SDS011;41061;52.822;6.860;2022-07-24T08:24:39;13.05;;;9.05;;
55172;SDS011;41061;52.822;6.860;2022-07-24T08:27:06;14.27;;;8.93;;
55172;SDS011;41061;52.822;6.860;2022-07-24T08:29:32;16.13;;;10.77;;
55172;SDS011;41061;52.822;6.860;2022-07-24T08:31:57;13.95;;;9.82;;
55172;SDS011;41061;52.822;6.860;2022-07-24T08:34:23;13.05;;;9.90;;
55172;SDS011;41061;52.822;6.860;2022-07-24T08:36:49;13.55;;;9.63;;
55172;SDS011;41061;52.822;6.860;2022-07-24T08:39:15;12.52;;;8.55;;
55172;SDS011;41061;52.822;6.860;2022-07-24T08:41:44;9.25;;;5.90;;
55172;SDS011;41061;52.822;6.860;2022-07-24T08:44:10;8.07;;;5.15;;
55172;SDS011;41061;52.822;6.860;2022-07-24T08:46:36;7.45;;;5.43;;
55172;SDS011;41061;52.822;6.860;2022-07-24T08:49:05;12.15;;;7.35;;
55172;SDS011;41061;52.822;6.860;2022-07-24T08:51:34;8.52;;;6.25;;
55172;SDS011;41061;52.822;6.860;2022-07-24T08:54:02;7.05;;;4.88;;
55172;SDS011;41061;52.822;6.860;2022-07-24T08:56:28;4.80;;;4.30;;
55172;SDS011;41061;52.822;6.860;2022-07-24T08:58:54;7.18;;;5.25;;
55172;SDS011;41061;52.822;6.860;2022-07-24T09:01:20;6.93;;;4.28;;
55172;SDS011;41061;52.822;6.860;2022-07-24T09:03:47;9.15;;;4.70;;
55172;SDS011;41061;52.822;6.860;2022-07-24T09:06:13;8.20;;;4.07;;
55172;SDS011;41061;52.822;6.860;2022-07-24T09:08:56;6.88;;;4.50;;
55172;SDS011;41061;52.822;6.860;2022-07-24T09:11:27;7.60;;;4.45;;
55172;SDS011;41061;52.822;6.860;2022-07-24T09:13:58;9.70;;;4.32;;
55172;SDS011;41061;52.822;6.860;2022-07-24T09:16:44;8.60;;;3.50;;
55172;SDS011;41061;52.822;6.860;2022-07-24T09:19:10;4.78;;;3.42;;
55172;SDS011;41061;52.822;6.860;2022-07-24T09:21:38;8.05;;;3.35;;
55172;SDS011;41061;52.822;6.860;2022-07-24T09:29:07;4.47;;;3.05;;
55172;SDS011;41061;52.822;6.860;2022-07-24T09:31:56;9.63;;;3.13;;
55172;SDS011;41061;52.822;6.860;2022-07-24T09:34:26;4.63;;;2.33;;
55172;SDS011;41061;52.822;6.860;2022-07-24T09:37:01;3.03;;;2.35;;
55172;SDS011;41061;52.822;6.860;2022-07-24T09:39:29;3.08;;;2.00;;
55172;SDS011;41061;52.822;6.860;2022-07-24T09:41:57;2.60;;;2.28;;
55172;SDS011;41061;52.822;6.860;2022-07-24T09:44:24;3.75;;;2.50;;
55172;SDS011;41061;52.822;6.860;2022-07-24T09:46:57;3.15;;;2.25;;
55172;SDS011;41061;52.822;6.860;2022-07-24T09:49:24;6.43;;;2.33;;
55172;SDS011;41061;52.822;6.860;2022-07-24T09:52:13;2.80;;;2.30;;
55172;SDS011;41061;52.822;6.860;2022-07-24T09:54:45;3.50;;;2.45;;
55172;SDS011;41061;52.822;6.860;2022-07-24T09:57:16;3.45;;;2.72;;
55172;SDS011;41061;52.822;6.860;2022-07-24T10:00:04;2.80;;;2.28;;
55172;SDS011;41061;52.822;6.860;2022-07-24T10:02:32;2.38;;;1.98;;
55172;SDS011;41061;52.822;6.860;2022-07-24T10:04:59;3.92;;;2.42;;
55172;SDS011;41061;52.822;6.860;2022-07-24T10:07:26;2.35;;;1.92;;
55172;SDS011;41061;52.822;6.860;2022-07-24T10:09:54;3.20;;;2.28;;
55172;SDS011;41061;52.822;6.860;2022-07-24T10:12:22;5.68;;;2.53;;
55172;SDS011;41061;52.822;6.860;2022-07-24T10:14:55;2.30;;;2.03;;
55172;SDS011;41061;52.822;6.860;2022-07-24T10:20:33;2.45;;;1.98;;
55172;SDS011;41061;52.822;6.860;2022-07-24T10:23:05;3.65;;;2.08;;
55172;SDS011;41061;52.822;6.860;2022-07-24T10:25:38;4.00;;;1.88;;
55172;SDS011;41061;52.822;6.860;2022-07-24T10:28:20;2.13;;;1.85;;
55172;SDS011;41061;52.822;6.860;2022-07-24T10:31:09;3.08;;;1.92;;
55172;SDS011;41061;52.822;6.860;2022-07-24T10:33:39;2.17;;;1.92;;
55172;SDS011;41061;52.822;6.860;2022-07-24T10:36:16;3.35;;;1.92;;
55172;SDS011;41061;52.822;6.860;2022-07-24T10:39:30;2.50;;;1.92;;
55172;SDS011;41061;52.822;6.860;2022-07-24T10:41:41;3.58;;;1.95;;
55172;SDS011;41061;52.822;6.860;2022-07-24T10:44:19;2.70;;;2.00;;
55172;SDS011;41061;52.822;6.860;2022-07-24T10:52:12;7.22;;;2.10;;
55172;SDS011;41061;52.822;6.860;2022-07-24T10:54:48;2.28;;;1.60;;
55172;SDS011;41061;52.822;6.860;2022-07-24T10:57:45;3.20;;;1.60;;
55172;SDS011;41061;52.822;6.860;2022-07-24T11:03:22;5.30;;;1.70;;
55172;SDS011;41061;52.822;6.860;2022-07-24T11:06:09;3.05;;;1.42;;
55172;SDS011;41061;52.822;6.860;2022-07-24T11:08:37;5.05;;;1.90;;
55172;SDS011;41061;52.822;6.860;2022-07-24T11:13:39;4.70;;;1.80;;
55172;SDS011;41061;52.822;6.860;2022-07-24T11:26:54;3.30;;;1.95;;
55172;SDS011;41061;52.822;6.860;2022-07-24T11:29:35;2.00;;;1.67;;
55172;SDS011;41061;52.822;6.860;2022-07-24T11:32:04;2.30;;;1.70;;
55172;SDS011;41061;52.822;6.860;2022-07-24T11:34:33;2.45;;;1.58;;
55172;SDS011;41061;52.822;6.860;2022-07-24T11:37:00;3.42;;;1.80;;
55172;SDS011;41061;52.822;6.860;2022-07-24T11:39:32;3.05;;;1.63;;
55172;SDS011;41061;52.822;6.860;2022-07-24T11:42:01;2.22;;;1.60;;
55172;SDS011;41061;52.822;6.860;2022-07-24T11:44:34;5.00;;;1.90;;
55172;SDS011;41061;52.822;6.860;2022-07-24T11:47:15;2.42;;;1.73;;
55172;SDS011;41061;52.822;6.860;2022-07-24T11:49:43;2.90;;;1.80;;
55172;SDS011;41061;52.822;6.860;2022-07-24T11:52:14;3.35;;;1.60;;
55172;SDS011;41061;52.822;6.860;2022-07-24T11:54:43;3.47;;;1.50;;
55172;SDS011;41061;52.822;6.860;2022-07-24T11:57:16;3.38;;;1.75;;
55172;SDS011;41061;52.822;6.860;2022-07-24T11:59:47;2.10;;;1.65;;
55172;SDS011;41061;52.822;6.860;2022-07-24T12:02:14;2.03;;;1.83;;
55172;SDS011;41061;52.822;6.860;2022-07-24T12:04:41;1.95;;;1.75;;
55172;SDS011;41061;52.822;6.860;2022-07-24T12:07:08;2.53;;;1.70;;
55172;SDS011;41061;52.822;6.860;2022-07-24T12:09:46;2.72;;;1.50;;
55172;SDS011;41061;52.822;6.860;2022-07-24T12:12:20;2.50;;;1.70;;
55172;SDS011;41061;52.822;6.860;2022-07-24T12:20:32;10.35;;;2.05;;
55172;SDS011;41061;52.822;6.860;2022-07-24T12:23:03;2.58;;;2.00;;
55172;SDS011;41061;52.822;6.860;2022-07-24T12:25:31;3.53;;;2.00;;
55172;SDS011;41061;52.822;6.860;2022-07-24T12:28:04;3.10;;;1.95;;
55172;SDS011;41061;52.822;6.860;2022-07-24T12:30:31;2.45;;;1.52;;
55172;SDS011;41061;52.822;6.860;2022-07-24T12:33:07;3.03;;;1.80;;
55172;SDS011;41061;52.822;6.860;2022-07-24T12:35:58;3.70;;;1.80;;
55172;SDS011;41061;52.822;6.860;2022-07-24T12:38:39;2.40;;;1.95;;
55172;SDS011;41061;52.822;6.860;2022-07-24T12:41:16;3.95;;;1.67;;
55172;SDS011;41061;52.822;6.860;2022-07-24T12:43:47;2.70;;;2.10;;
55172;SDS011;41061;52.822;6.860;2022-07-24T12:46:19;3.95;;;1.80;;
55172;SDS011;41061;52.822;6.860;2022-07-24T12:51:49;1.98;;;1.65;;
55172;SDS011;41061;52.822;6.860;2022-07-24T12:54:24;3.83;;;2.03;;
55172;SDS011;41061;52.822;6.860;2022-07-24T12:56:59;3.88;;;2.03;;
55172;SDS011;41061;52.822;6.860;2022-07-24T13:02:03;4.70;;;2.28;;
55172;SDS011;41061;52.822;6.860;2022-07-24T13:04:30;7.50;;;1.95;;
55172;SDS011;41061;52.822;6.860;2022-07-24T13:07:00;4.75;;;1.60;;
55172;SDS011;41061;52.822;6.860;2022-07-24T13:09:27;3.20;;;1.90;;
55172;SDS011;41061;52.822;6.860;2022-07-24T13:11:54;3.85;;;2.28;;
55172;SDS011;41061;52.822;6.860;2022-07-24T13:14:21;2.58;;;1.85;;
55172;SDS011;41061;52.822;6.860;2022-07-24T13:16:49;2.95;;;1.92;;
55172;SDS011;41061;52.822;6.860;2022-07-24T13:19:15;5.93;;;2.22;;
55172;SDS011;41061;52.822;6.860;2022-07-24T13:21:42;5.05;;;2.10;;
55172;SDS011;41061;52.822;6.860;2022-07-24T13:24:09;2.95;;;2.00;;
55172;SDS011;41061;52.822;6.860;2022-07-24T13:26:36;3.90;;;1.80;;
55172;SDS011;41061;52.822;6.860;2022-07-24T13:29:03;5.05;;;1.83;;
55172;SDS011;41061;52.822;6.860;2022-07-24T13:31:30;4.03;;;2.00;;
55172;SDS011;41061;52.822;6.860;2022-07-24T13:33:55;2.80;;;1.92;;
55172;SDS011;41061;52.822;6.860;2022-07-24T13:36:21;2.88;;;1.90;;
55172;SDS011;41061;52.822;6.860;2022-07-24T13:38:47;4.47;;;1.80;;
55172;SDS011;41061;52.822;6.860;2022-07-24T13:41:13;2.03;;;1.65;;
55172;SDS011;41061;52.822;6.860;2022-07-24T13:43:39;4.82;;;2.00;;
55172;SDS011;41061;52.822;6.860;2022-07-24T13:46:05;2.92;;;1.70;;
55172;SDS011;41061;52.822;6.860;2022-07-24T13:48:31;4.13;;;1.90;;
55172;SDS011;41061;52.822;6.860;2022-07-24T13:50:57;4.90;;;1.85;;
55172;SDS011;41061;52.822;6.860;2022-07-24T13:53:23;3.58;;;1.67;;
55172;SDS011;41061;52.822;6.860;2022-07-24T13:55:48;3.17;;;1.75;;
55172;SDS011;41061;52.822;6.860;2022-07-24T13:58:15;3.60;;;1.95;;
55172;SDS011;41061;52.822;6.860;2022-07-24T14:00:41;4.07;;;1.70;;
55172;SDS011;41061;52.822;6.860;2022-07-24T14:03:07;3.25;;;1.70;;
55172;SDS011;41061;52.822;6.860;2022-07-24T14:05:33;4.10;;;1.75;;
55172;SDS011;41061;52.822;6.860;2022-07-24T14:07:58;2.08;;;1.73;;
55172;SDS011;41061;52.822;6.860;2022-07-24T14:10:24;3.25;;;1.50;;
55172;SDS011;41061;52.822;6.860;2022-07-24T14:12:50;2.67;;;1.50;;
55172;SDS011;41061;52.822;6.860;2022-07-24T14:15:16;1.65;;;1.52;;
55172;SDS011;41061;52.822;6.860;2022-07-24T14:17:42;2.92;;;1.50;;
55172;SDS011;41061;52.822;6.860;2022-07-24T14:20:11;3.30;;;1.70;;
55172;SDS011;41061;52.822;6.860;2022-07-24T14:22:38;5.60;;;1.73;;
55172;SDS011;41061;52.822;6.860;2022-07-24T14:25:05;3.10;;;1.60;;
55172;SDS011;41061;52.822;6.860;2022-07-24T14:27:31;10.18;;;2.60;;
55172;SDS011;41061;52.822;6.860;2022-07-24T14:29:57;3.10;;;1.55;;
55172;SDS011;41061;52.822;6.860;2022-07-24T14:32:23;3.40;;;1.55;;
55172;SDS011;41061;52.822;6.860;2022-07-24T14:34:49;3.42;;;1.92;;
55172;SDS011;41061;52.822;6.860;2022-07-24T14:37:15;3.65;;;1.80;;
55172;SDS011;41061;52.822;6.860;2022-07-24T14:39:40;4.00;;;1.80;;
55172;SDS011;41061;52.822;6.860;2022-07-24T14:42:06;2.92;;;1.70;;
55172;SDS011;41061;52.822;6.860;2022-07-24T14:44:32;5.57;;;1.80;;
55172;SDS011;41061;52.822;6.860;2022-07-24T14:46:58;3.25;;;1.60;;
55172;SDS011;41061;52.822;6.860;2022-07-24T14:49:26;4.03;;;1.50;;
55172;SDS011;41061;52.822;6.860;2022-07-24T14:51:52;2.53;;;1.77;;
55172;SDS011;41061;52.822;6.860;2022-07-24T14:54:18;1.95;;;1.52;;
55172;SDS011;41061;52.822;6.860;2022-07-24T14:56:44;2.50;;;1.50;;
55172;SDS011;41061;52.822;6.860;2022-07-24T14:59:10;1.98;;;1.42;;
55172;SDS011;41061;52.822;6.860;2022-07-24T15:01:36;2.85;;;1.65;;
55172;SDS011;41061;52.822;6.860;2022-07-24T15:04:01;6.40;;;1.50;;
55172;SDS011;41061;52.822;6.860;2022-07-24T15:06:28;4.32;;;1.88;;
55172;SDS011;41061;52.822;6.860;2022-07-24T15:08:54;2.85;;;1.60;;
55172;SDS011;41061;52.822;6.860;2022-07-24T15:11:19;2.33;;;1.63;;
55172;SDS011;41061;52.822;6.860;2022-07-24T15:13:49;4.07;;;1.67;;
55172;SDS011;41061;52.822;6.860;2022-07-24T15:16:15;3.70;;;1.90;;
55172;SDS011;41061;52.822;6.860;2022-07-24T15:18:40;3.03;;;1.90;;
55172;SDS011;41061;52.822;6.860;2022-07-24T15:21:06;3.58;;;1.80;;
55172;SDS011;41061;52.822;6.860;2022-07-24T15:23:32;3.35;;;1.50;;
55172;SDS011;41061;52.822;6.860;2022-07-24T15:25:58;3.20;;;1.60;;
55172;SDS011;41061;52.822;6.860;2022-07-24T15:28:24;5.32;;;1.80;;